الصفحة الرئيسية
METAR-TAF:

METAR-TAF

مطار :

بروناي, بروناي

دائرة عرض: 04-56N, خط طول: 114-56E, ارتفاع: 22 متر

مراقبة الطقس الحالي

تاريخ ووقت الإصدار 36 دقيقة قبل الساعة 16:30UTC
ريح 3 عقدة من الجنوب/الجنوب الغربي
درجة الحرارة 28°درجة مئوية
الرطوبة 89%
ضغط 1008 hPa
الرؤية 10 كم أو أكثر
غيوم قليلة على ارتفاع 1400 قدم
غيوم مفككة على ارتفاع 14000 قدم

METAR: WBSB 241630Z 21003KT 9999 FEW014 BKN140 28/26 Q1008 NOSIG

زمن: 01:06 (17:06 UTC)

توقعات

تاريخ ووقت الإصدار 6ساعات و 6 دقيقة قبل الساعة 11:00UTC
التوقعات صالحة من24 الساعة 12 UTC إلى 25 الساعة 18 UTC
ريح 5 عقدة من الشمال الشرقي
الرؤية 10 كم أو أكثر
غيوم متفرقة على ارتفاع 1500 قدم
غيوم قليلة على ارتفاع 1600 قدم, مزنة ركامية.
مؤقت
من 24 الساعة 13 UTC إلى 24 الساعة 16 UTC
الرؤية: 6000 متر
زخات من المطر, عاصفة رعدية, مطر
أصبح
من 24 الساعة 18 UTC إلى 24 الساعة 20 UTC
ريح 3 عقدة من الجنوب/الجنوب الشرقي
غيوم متفرقة على ارتفاع 1400 قدم
غيوم قليلة على ارتفاع 1500 قدم, مزنة ركامية.

TAF: WBSB 241100Z 2412/2518 04005KT 9999 SCT015 FEW016CB TEMPO 2413/2416 6000 SHRA TSRA BECMG 2418/2420 16003KT SCT014 FEW015CB

أرصاد الطقس والتوقعات من أكثر من 4000 مطار (تقارير الطقس للمطار METAR والتنبؤ بالطقس بالمطارTAF).

المحطات المتاحة هي النقط الصفراء والحمراء على الخريطة.

حرك المؤشر فوق النقطة لمعرفة اسم المحطة.

ثم انقر لمعرفة أرصاد وتوقعات الطقس.

لتغيير الخارطة: اضغط على الأزرار الخضراء مع رمز الصليب الأسود للتكبير. على الزر الأخضر مع شرطة للتصغير، أو على الأسهم الخضراء للخرائط المجاورة.


METAR-TAF: